sensor_id;sensor_type;location;lat;lon;timestamp;P1;durP1;ratioP1;P2;durP2;ratioP2
76714;SDS011;65644;44.990;20.288;2023-05-23T00:01:55;10.35;;;7.72;;
76714;SDS011;65644;44.990;20.288;2023-05-23T00:04:22;9.32;;;8.30;;
76714;SDS011;65644;44.990;20.288;2023-05-23T00:06:51;11.07;;;8.80;;
76714;SDS011;65644;44.990;20.288;2023-05-23T00:09:17;9.63;;;8.30;;
76714;SDS011;65644;44.990;20.288;2023-05-23T00:11:43;10.07;;;8.55;;
76714;SDS011;65644;44.990;20.288;2023-05-23T00:14:10;11.80;;;8.50;;
76714;SDS011;65644;44.990;20.288;2023-05-23T00:16:37;10.32;;;8.65;;
76714;SDS011;65644;44.990;20.288;2023-05-23T00:19:05;9.25;;;8.27;;
76714;SDS011;65644;44.990;20.288;2023-05-23T00:21:32;10.15;;;9.02;;
76714;SDS011;65644;44.990;20.288;2023-05-23T00:23:58;10.48;;;9.07;;
76714;SDS011;65644;44.990;20.288;2023-05-23T00:26:26;12.77;;;9.10;;
76714;SDS011;65644;44.990;20.288;2023-05-23T00:28:56;10.15;;;9.05;;
76714;SDS011;65644;44.990;20.288;2023-05-23T00:31:22;10.60;;;9.52;;
76714;SDS011;65644;44.990;20.288;2023-05-23T00:33:48;11.45;;;10.02;;
76714;SDS011;65644;44.990;20.288;2023-05-23T00:36:14;10.10;;;9.18;;
76714;SDS011;65644;44.990;20.288;2023-05-23T00:38:40;10.70;;;8.80;;
76714;SDS011;65644;44.990;20.288;2023-05-23T00:41:07;12.52;;;9.93;;
76714;SDS011;65644;44.990;20.288;2023-05-23T00:43:33;13.20;;;9.70;;
76714;SDS011;65644;44.990;20.288;2023-05-23T00:45:59;11.40;;;9.30;;
76714;SDS011;65644;44.990;20.288;2023-05-23T00:48:25;11.02;;;9.15;;
76714;SDS011;65644;44.990;20.288;2023-05-23T00:50:51;11.95;;;9.57;;
76714;SDS011;65644;44.990;20.288;2023-05-23T00:53:18;16.02;;;10.63;;
76714;SDS011;65644;44.990;20.288;2023-05-23T00:55:45;12.68;;;9.57;;
76714;SDS011;65644;44.990;20.288;2023-05-23T00:58:11;11.57;;;10.48;;
76714;SDS011;65644;44.990;20.288;2023-05-23T01:00:40;10.88;;;9.77;;
76714;SDS011;65644;44.990;20.288;2023-05-23T01:03:06;12.55;;;9.93;;
76714;SDS011;65644;44.990;20.288;2023-05-23T01:05:33;11.20;;;10.02;;
76714;SDS011;65644;44.990;20.288;2023-05-23T01:07:59;12.30;;;11.00;;
76714;SDS011;65644;44.990;20.288;2023-05-23T01:10:27;12.00;;;10.65;;
76714;SDS011;65644;44.990;20.288;2023-05-23T01:15:44;13.32;;;11.27;;
76714;SDS011;65644;44.990;20.288;2023-05-23T01:18:13;12.88;;;10.55;;
76714;SDS011;65644;44.990;20.288;2023-05-23T01:20:41;13.30;;;11.10;;
76714;SDS011;65644;44.990;20.288;2023-05-23T01:28:25;12.20;;;11.00;;
76714;SDS011;65644;44.990;20.288;2023-05-23T01:30:52;12.55;;;11.27;;
76714;SDS011;65644;44.990;20.288;2023-05-23T01:33:21;13.07;;;11.75;;
76714;SDS011;65644;44.990;20.288;2023-05-23T01:35:48;13.05;;;11.27;;
76714;SDS011;65644;44.990;20.288;2023-05-23T01:38:14;12.80;;;11.50;;
76714;SDS011;65644;44.990;20.288;2023-05-23T01:40:40;11.70;;;10.48;;
76714;SDS011;65644;44.990;20.288;2023-05-23T01:43:06;12.13;;;10.93;;
76714;SDS011;65644;44.990;20.288;2023-05-23T01:45:32;13.98;;;11.38;;
76714;SDS011;65644;44.990;20.288;2023-05-23T01:47:59;13.60;;;12.20;;
76714;SDS011;65644;44.990;20.288;2023-05-23T01:50:25;13.18;;;11.77;;
76714;SDS011;65644;44.990;20.288;2023-05-23T01:52:51;13.25;;;11.40;;
76714;SDS011;65644;44.990;20.288;2023-05-23T01:55:18;13.85;;;12.10;;
76714;SDS011;65644;44.990;20.288;2023-05-23T01:57:52;12.63;;;11.43;;
76714;SDS011;65644;44.990;20.288;2023-05-23T02:00:20;11.80;;;10.70;;
76714;SDS011;65644;44.990;20.288;2023-05-23T02:02:46;14.30;;;12.43;;
76714;SDS011;65644;44.990;20.288;2023-05-23T02:05:12;13.18;;;11.70;;
76714;SDS011;65644;44.990;20.288;2023-05-23T02:07:38;12.95;;;10.80;;
76714;SDS011;65644;44.990;20.288;2023-05-23T02:10:06;13.95;;;12.23;;
76714;SDS011;65644;44.990;20.288;2023-05-23T02:12:32;14.55;;;11.60;;
76714;SDS011;65644;44.990;20.288;2023-05-23T02:14:58;12.63;;;11.32;;
76714;SDS011;65644;44.990;20.288;2023-05-23T02:17:24;16.27;;;11.90;;
76714;SDS011;65644;44.990;20.288;2023-05-23T02:19:50;13.20;;;11.63;;
76714;SDS011;65644;44.990;20.288;2023-05-23T02:22:16;15.57;;;11.88;;
76714;SDS011;65644;44.990;20.288;2023-05-23T02:24:42;12.98;;;11.73;;
76714;SDS011;65644;44.990;20.288;2023-05-23T02:27:08;13.57;;;12.23;;
76714;SDS011;65644;44.990;20.288;2023-05-23T02:29:34;14.80;;;13.02;;
76714;SDS011;65644;44.990;20.288;2023-05-23T02:32:01;14.73;;;13.13;;
76714;SDS011;65644;44.990;20.288;2023-05-23T02:34:27;14.60;;;13.18;;
76714;SDS011;65644;44.990;20.288;2023-05-23T02:36:53;17.05;;;13.30;;
76714;SDS011;65644;44.990;20.288;2023-05-23T02:39:19;17.08;;;14.23;;
76714;SDS011;65644;44.990;20.288;2023-05-23T02:41:45;16.55;;;13.55;;
76714;SDS011;65644;44.990;20.288;2023-05-23T02:44:11;17.73;;;14.38;;
76714;SDS011;65644;44.990;20.288;2023-05-23T02:46:37;15.50;;;13.95;;
76714;SDS011;65644;44.990;20.288;2023-05-23T02:49:03;15.98;;;14.35;;
76714;SDS011;65644;44.990;20.288;2023-05-23T02:51:29;16.30;;;14.60;;
76714;SDS011;65644;44.990;20.288;2023-05-23T02:53:56;17.10;;;15.30;;
76714;SDS011;65644;44.990;20.288;2023-05-23T02:56:22;17.77;;;15.77;;
76714;SDS011;65644;44.990;20.288;2023-05-23T02:58:48;20.05;;;15.23;;
76714;SDS011;65644;44.990;20.288;2023-05-23T03:01:14;17.30;;;15.45;;
76714;SDS011;65644;44.990;20.288;2023-05-23T03:03:42;16.23;;;14.52;;
76714;SDS011;65644;44.990;20.288;2023-05-23T03:06:08;17.13;;;15.07;;
76714;SDS011;65644;44.990;20.288;2023-05-23T03:08:39;17.55;;;15.30;;
76714;SDS011;65644;44.990;20.288;2023-05-23T03:11:05;16.48;;;14.60;;
76714;SDS011;65644;44.990;20.288;2023-05-23T03:13:31;19.23;;;16.02;;
76714;SDS011;65644;44.990;20.288;2023-05-23T03:15:57;17.42;;;15.63;;
76714;SDS011;65644;44.990;20.288;2023-05-23T03:18:23;18.40;;;16.45;;
76714;SDS011;65644;44.990;20.288;2023-05-23T03:20:49;19.00;;;17.10;;
76714;SDS011;65644;44.990;20.288;2023-05-23T03:23:15;21.35;;;18.92;;
76714;SDS011;65644;44.990;20.288;2023-05-23T03:25:41;20.02;;;17.92;;
76714;SDS011;65644;44.990;20.288;2023-05-23T03:28:07;20.88;;;18.58;;
76714;SDS011;65644;44.990;20.288;2023-05-23T03:30:33;22.40;;;18.45;;
76714;SDS011;65644;44.990;20.288;2023-05-23T03:32:59;21.20;;;18.95;;
76714;SDS011;65644;44.990;20.288;2023-05-23T03:35:26;20.40;;;18.40;;
76714;SDS011;65644;44.990;20.288;2023-05-23T03:37:52;20.85;;;18.52;;
76714;SDS011;65644;44.990;20.288;2023-05-23T03:40:18;21.88;;;19.13;;
76714;SDS011;65644;44.990;20.288;2023-05-23T03:42:46;21.73;;;18.60;;
76714;SDS011;65644;44.990;20.288;2023-05-23T03:45:13;27.02;;;18.35;;
76714;SDS011;65644;44.990;20.288;2023-05-23T03:47:39;20.92;;;18.45;;
76714;SDS011;65644;44.990;20.288;2023-05-23T03:50:07;22.65;;;17.52;;
76714;SDS011;65644;44.990;20.288;2023-05-23T03:52:33;21.75;;;18.60;;
76714;SDS011;65644;44.990;20.288;2023-05-23T03:54:59;20.83;;;17.65;;
76714;SDS011;65644;44.990;20.288;2023-05-23T03:57:25;22.17;;;18.33;;
76714;SDS011;65644;44.990;20.288;2023-05-23T03:59:51;20.33;;;18.25;;
76714;SDS011;65644;44.990;20.288;2023-05-23T04:02:17;20.08;;;17.75;;
76714;SDS011;65644;44.990;20.288;2023-05-23T04:04:43;19.55;;;17.45;;
76714;SDS011;65644;44.990;20.288;2023-05-23T04:07:10;20.85;;;18.63;;
76714;SDS011;65644;44.990;20.288;2023-05-23T04:09:36;18.83;;;16.02;;
76714;SDS011;65644;44.990;20.288;2023-05-23T04:12:03;21.75;;;17.73;;
76714;SDS011;65644;44.990;20.288;2023-05-23T04:14:30;20.98;;;18.00;;
76714;SDS011;65644;44.990;20.288;2023-05-23T04:16:57;19.42;;;17.42;;
76714;SDS011;65644;44.990;20.288;2023-05-23T04:19:24;20.15;;;17.55;;
76714;SDS011;65644;44.990;20.288;2023-05-23T04:21:50;22.83;;;17.30;;
76714;SDS011;65644;44.990;20.288;2023-05-23T04:24:16;20.58;;;17.27;;
76714;SDS011;65644;44.990;20.288;2023-05-23T04:26:42;19.65;;;17.50;;
76714;SDS011;65644;44.990;20.288;2023-05-23T04:29:08;22.77;;;19.13;;
76714;SDS011;65644;44.990;20.288;2023-05-23T04:31:36;22.40;;;18.58;;
76714;SDS011;65644;44.990;20.288;2023-05-23T04:34:02;20.95;;;18.70;;
76714;SDS011;65644;44.990;20.288;2023-05-23T04:36:28;21.77;;;18.27;;
76714;SDS011;65644;44.990;20.288;2023-05-23T04:38:54;21.05;;;18.65;;
76714;SDS011;65644;44.990;20.288;2023-05-23T04:41:20;24.63;;;20.27;;
76714;SDS011;65644;44.990;20.288;2023-05-23T04:43:47;22.73;;;18.92;;
76714;SDS011;65644;44.990;20.288;2023-05-23T04:46:18;25.38;;;19.75;;
76714;SDS011;65644;44.990;20.288;2023-05-23T04:48:51;23.77;;;20.20;;
76714;SDS011;65644;44.990;20.288;2023-05-23T04:51:17;23.67;;;21.17;;
76714;SDS011;65644;44.990;20.288;2023-05-23T04:53:45;25.63;;;20.45;;
76714;SDS011;65644;44.990;20.288;2023-05-23T04:56:11;26.65;;;21.10;;
76714;SDS011;65644;44.990;20.288;2023-05-23T04:58:37;26.67;;;22.00;;
76714;SDS011;65644;44.990;20.288;2023-05-23T05:01:08;28.02;;;21.67;;
76714;SDS011;65644;44.990;20.288;2023-05-23T05:03:34;30.33;;;22.38;;
76714;SDS011;65644;44.990;20.288;2023-05-23T05:06:01;31.75;;;21.65;;
76714;SDS011;65644;44.990;20.288;2023-05-23T05:08:27;28.27;;;22.52;;
76714;SDS011;65644;44.990;20.288;2023-05-23T05:10:53;25.38;;;22.35;;
76714;SDS011;65644;44.990;20.288;2023-05-23T05:13:20;33.70;;;23.25;;
76714;SDS011;65644;44.990;20.288;2023-05-23T05:15:46;27.98;;;22.83;;
76714;SDS011;65644;44.990;20.288;2023-05-23T05:18:12;26.08;;;22.48;;
76714;SDS011;65644;44.990;20.288;2023-05-23T05:20:38;27.30;;;22.67;;
76714;SDS011;65644;44.990;20.288;2023-05-23T05:23:04;26.13;;;23.30;;
76714;SDS011;65644;44.990;20.288;2023-05-23T05:25:32;28.25;;;22.23;;
76714;SDS011;65644;44.990;20.288;2023-05-23T05:28:00;31.45;;;23.23;;
76714;SDS011;65644;44.990;20.288;2023-05-23T05:30:32;30.38;;;23.83;;
76714;SDS011;65644;44.990;20.288;2023-05-23T05:33:02;30.92;;;23.98;;
76714;SDS011;65644;44.990;20.288;2023-05-23T05:35:31;27.55;;;22.52;;
76714;SDS011;65644;44.990;20.288;2023-05-23T05:37:58;31.77;;;24.85;;
76714;SDS011;65644;44.990;20.288;2023-05-23T05:40:24;31.73;;;25.02;;
76714;SDS011;65644;44.990;20.288;2023-05-23T05:42:50;32.08;;;24.42;;
76714;SDS011;65644;44.990;20.288;2023-05-23T05:45:16;31.92;;;24.55;;
76714;SDS011;65644;44.990;20.288;2023-05-23T05:47:43;34.47;;;24.02;;
76714;SDS011;65644;44.990;20.288;2023-05-23T05:50:09;34.17;;;25.45;;
76714;SDS011;65644;44.990;20.288;2023-05-23T05:52:36;32.78;;;25.17;;
76714;SDS011;65644;44.990;20.288;2023-05-23T05:55:09;30.75;;;25.60;;
76714;SDS011;65644;44.990;20.288;2023-05-23T05:57:36;28.38;;;24.00;;
76714;SDS011;65644;44.990;20.288;2023-05-23T06:00:06;32.78;;;24.73;;
76714;SDS011;65644;44.990;20.288;2023-05-23T06:02:37;29.97;;;25.47;;
76714;SDS011;65644;44.990;20.288;2023-05-23T06:05:03;27.70;;;23.35;;
76714;SDS011;65644;44.990;20.288;2023-05-23T06:07:32;30.52;;;24.10;;
76714;SDS011;65644;44.990;20.288;2023-05-23T06:09:58;37.35;;;31.58;;
76714;SDS011;65644;44.990;20.288;2023-05-23T06:12:24;43.47;;;35.30;;
76714;SDS011;65644;44.990;20.288;2023-05-23T06:14:50;33.97;;;27.15;;
76714;SDS011;65644;44.990;20.288;2023-05-23T06:17:16;34.53;;;28.98;;
76714;SDS011;65644;44.990;20.288;2023-05-23T06:19:42;35.72;;;26.38;;
76714;SDS011;65644;44.990;20.288;2023-05-23T06:22:08;29.40;;;24.88;;
76714;SDS011;65644;44.990;20.288;2023-05-23T06:24:34;27.90;;;24.10;;
76714;SDS011;65644;44.990;20.288;2023-05-23T06:27:00;31.30;;;25.83;;
76714;SDS011;65644;44.990;20.288;2023-05-23T06:29:26;30.73;;;24.30;;
76714;SDS011;65644;44.990;20.288;2023-05-23T06:31:55;29.23;;;24.30;;
76714;SDS011;65644;44.990;20.288;2023-05-23T06:34:21;26.25;;;23.25;;
76714;SDS011;65644;44.990;20.288;2023-05-23T06:36:47;28.27;;;24.17;;
76714;SDS011;65644;44.990;20.288;2023-05-23T06:39:13;28.63;;;23.30;;
76714;SDS011;65644;44.990;20.288;2023-05-23T06:41:39;26.73;;;20.05;;
76714;SDS011;65644;44.990;20.288;2023-05-23T06:44:05;31.00;;;23.42;;
76714;SDS011;65644;44.990;20.288;2023-05-23T06:46:31;26.27;;;23.35;;
76714;SDS011;65644;44.990;20.288;2023-05-23T06:48:57;26.15;;;21.50;;
76714;SDS011;65644;44.990;20.288;2023-05-23T06:51:23;24.42;;;21.80;;
76714;SDS011;65644;44.990;20.288;2023-05-23T06:53:49;23.13;;;18.33;;
76714;SDS011;65644;44.990;20.288;2023-05-23T06:56:15;26.05;;;20.33;;
76714;SDS011;65644;44.990;20.288;2023-05-23T06:58:42;25.30;;;20.52;;
76714;SDS011;65644;44.990;20.288;2023-05-23T07:01:08;28.73;;;19.40;;
76714;SDS011;65644;44.990;20.288;2023-05-23T07:03:35;27.42;;;20.15;;
76714;SDS011;65644;44.990;20.288;2023-05-23T07:06:05;25.48;;;20.33;;
76714;SDS011;65644;44.990;20.288;2023-05-23T07:08:31;19.55;;;17.08;;
76714;SDS011;65644;44.990;20.288;2023-05-23T07:10:57;18.38;;;16.38;;
76714;SDS011;65644;44.990;20.288;2023-05-23T07:13:23;17.52;;;15.50;;
76714;SDS011;65644;44.990;20.288;2023-05-23T07:15:49;18.58;;;16.48;;
76714;SDS011;65644;44.990;20.288;2023-05-23T07:18:15;18.67;;;16.08;;
76714;SDS011;65644;44.990;20.288;2023-05-23T07:20:41;18.85;;;14.88;;
76714;SDS011;65644;44.990;20.288;2023-05-23T07:23:07;18.33;;;14.25;;
76714;SDS011;65644;44.990;20.288;2023-05-23T07:25:33;18.90;;;15.10;;
76714;SDS011;65644;44.990;20.288;2023-05-23T07:27:59;15.98;;;14.20;;
76714;SDS011;65644;44.990;20.288;2023-05-23T07:30:26;14.50;;;11.85;;
76714;SDS011;65644;44.990;20.288;2023-05-23T07:32:52;19.50;;;11.73;;
76714;SDS011;65644;44.990;20.288;2023-05-23T07:35:19;16.92;;;13.02;;
76714;SDS011;65644;44.990;20.288;2023-05-23T07:37:50;11.25;;;9.98;;
76714;SDS011;65644;44.990;20.288;2023-05-23T07:40:16;8.38;;;7.10;;
76714;SDS011;65644;44.990;20.288;2023-05-23T07:42:42;12.90;;;9.93;;
76714;SDS011;65644;44.990;20.288;2023-05-23T07:45:08;14.48;;;9.10;;
76714;SDS011;65644;44.990;20.288;2023-05-23T07:47:34;9.65;;;8.55;;
76714;SDS011;65644;44.990;20.288;2023-05-23T07:50:00;12.75;;;10.43;;
76714;SDS011;65644;44.990;20.288;2023-05-23T07:52:29;9.55;;;6.97;;
76714;SDS011;65644;44.990;20.288;2023-05-23T07:54:56;12.82;;;8.88;;
76714;SDS011;65644;44.990;20.288;2023-05-23T07:57:22;14.80;;;11.43;;
76714;SDS011;65644;44.990;20.288;2023-05-23T07:59:48;9.43;;;7.72;;
76714;SDS011;65644;44.990;20.288;2023-05-23T08:02:15;13.63;;;9.57;;
76714;SDS011;65644;44.990;20.288;2023-05-23T08:04:41;13.68;;;8.80;;
76714;SDS011;65644;44.990;20.288;2023-05-23T08:07:07;9.65;;;7.05;;
76714;SDS011;65644;44.990;20.288;2023-05-23T08:09:34;10.02;;;5.30;;
76714;SDS011;65644;44.990;20.288;2023-05-23T08:12:00;9.52;;;7.60;;
76714;SDS011;65644;44.990;20.288;2023-05-23T08:14:26;10.77;;;8.20;;
76714;SDS011;65644;44.990;20.288;2023-05-23T08:16:52;15.18;;;7.55;;
76714;SDS011;65644;44.990;20.288;2023-05-23T08:19:18;11.75;;;7.95;;
76714;SDS011;65644;44.990;20.288;2023-05-23T08:21:45;11.95;;;6.80;;
76714;SDS011;65644;44.990;20.288;2023-05-23T08:24:11;8.07;;;5.05;;
76714;SDS011;65644;44.990;20.288;2023-05-23T08:26:37;6.88;;;4.65;;
76714;SDS011;65644;44.990;20.288;2023-05-23T08:29:03;11.95;;;7.00;;
76714;SDS011;65644;44.990;20.288;2023-05-23T08:31:30;9.07;;;5.45;;
76714;SDS011;65644;44.990;20.288;2023-05-23T08:33:58;5.10;;;3.70;;
76714;SDS011;65644;44.990;20.288;2023-05-23T08:36:24;9.68;;;4.07;;
76714;SDS011;65644;44.990;20.288;2023-05-23T08:38:50;4.15;;;2.95;;
76714;SDS011;65644;44.990;20.288;2023-05-23T08:41:23;4.20;;;3.05;;
76714;SDS011;65644;44.990;20.288;2023-05-23T08:43:49;3.47;;;2.55;;
76714;SDS011;65644;44.990;20.288;2023-05-23T08:46:16;4.97;;;2.83;;
76714;SDS011;65644;44.990;20.288;2023-05-23T08:48:42;7.65;;;3.40;;
76714;SDS011;65644;44.990;20.288;2023-05-23T08:51:09;5.22;;;3.80;;
76714;SDS011;65644;44.990;20.288;2023-05-23T08:53:36;6.55;;;3.80;;
76714;SDS011;65644;44.990;20.288;2023-05-23T08:56:02;4.53;;;4.13;;
76714;SDS011;65644;44.990;20.288;2023-05-23T08:58:29;6.85;;;4.43;;
76714;SDS011;65644;44.990;20.288;2023-05-23T09:00:55;6.50;;;4.75;;
76714;SDS011;65644;44.990;20.288;2023-05-23T09:03:23;7.88;;;4.72;;
76714;SDS011;65644;44.990;20.288;2023-05-23T09:05:50;10.45;;;4.72;;
76714;SDS011;65644;44.990;20.288;2023-05-23T09:08:18;6.13;;;4.43;;
76714;SDS011;65644;44.990;20.288;2023-05-23T09:10:45;7.93;;;4.40;;
76714;SDS011;65644;44.990;20.288;2023-05-23T09:13:11;3.63;;;3.30;;
76714;SDS011;65644;44.990;20.288;2023-05-23T09:15:37;4.47;;;3.55;;
76714;SDS011;65644;44.990;20.288;2023-05-23T09:18:03;6.07;;;4.15;;
76714;SDS011;65644;44.990;20.288;2023-05-23T09:20:29;5.70;;;3.85;;
76714;SDS011;65644;44.990;20.288;2023-05-23T09:22:55;3.53;;;3.20;;
76714;SDS011;65644;44.990;20.288;2023-05-23T09:25:21;6.10;;;3.40;;
76714;SDS011;65644;44.990;20.288;2023-05-23T09:27:47;6.40;;;4.00;;
76714;SDS011;65644;44.990;20.288;2023-05-23T09:30:13;4.32;;;2.72;;
76714;SDS011;65644;44.990;20.288;2023-05-23T09:32:39;2.55;;;2.40;;
76714;SDS011;65644;44.990;20.288;2023-05-23T09:35:06;3.28;;;2.60;;
76714;SDS011;65644;44.990;20.288;2023-05-23T09:37:36;5.38;;;2.85;;
76714;SDS011;65644;44.990;20.288;2023-05-23T09:40:10;5.35;;;2.83;;
76714;SDS011;65644;44.990;20.288;2023-05-23T09:42:46;6.07;;;2.55;;
76714;SDS011;65644;44.990;20.288;2023-05-23T09:45:13;3.00;;;2.53;;
76714;SDS011;65644;44.990;20.288;2023-05-23T09:47:49;2.60;;;2.40;;
76714;SDS011;65644;44.990;20.288;2023-05-23T09:50:16;2.97;;;2.30;;
76714;SDS011;65644;44.990;20.288;2023-05-23T09:52:42;4.30;;;2.80;;
76714;SDS011;65644;44.990;20.288;2023-05-23T09:55:09;3.22;;;2.20;;
76714;SDS011;65644;44.990;20.288;2023-05-23T09:57:36;3.30;;;2.55;;
76714;SDS011;65644;44.990;20.288;2023-05-23T10:00:02;4.47;;;2.45;;
76714;SDS011;65644;44.990;20.288;2023-05-23T10:05:04;2.58;;;2.38;;
76714;SDS011;65644;44.990;20.288;2023-05-23T10:07:31;5.40;;;2.58;;
76714;SDS011;65644;44.990;20.288;2023-05-23T10:09:59;5.25;;;2.60;;
76714;SDS011;65644;44.990;20.288;2023-05-23T10:15:04;2.80;;;2.60;;
76714;SDS011;65644;44.990;20.288;2023-05-23T10:20:13;4.20;;;2.42;;
76714;SDS011;65644;44.990;20.288;2023-05-23T10:22:41;3.83;;;2.78;;
76714;SDS011;65644;44.990;20.288;2023-05-23T10:25:07;4.18;;;2.70;;
76714;SDS011;65644;44.990;20.288;2023-05-23T10:27:37;4.60;;;2.42;;
76714;SDS011;65644;44.990;20.288;2023-05-23T10:30:05;3.47;;;2.30;;
76714;SDS011;65644;44.990;20.288;2023-05-23T10:32:31;3.35;;;2.53;;
76714;SDS011;65644;44.990;20.288;2023-05-23T10:34:58;3.55;;;2.63;;
76714;SDS011;65644;44.990;20.288;2023-05-23T10:37:29;3.90;;;3.05;;
76714;SDS011;65644;44.990;20.288;2023-05-23T10:39:58;4.05;;;2.95;;
76714;SDS011;65644;44.990;20.288;2023-05-23T10:45:13;4.07;;;2.75;;
76714;SDS011;65644;44.990;20.288;2023-05-23T10:47:39;4.22;;;2.78;;
76714;SDS011;65644;44.990;20.288;2023-05-23T10:50:05;3.25;;;2.95;;
76714;SDS011;65644;44.990;20.288;2023-05-23T10:52:37;3.28;;;2.90;;
76714;SDS011;65644;44.990;20.288;2023-05-23T10:55:11;8.25;;;2.83;;
76714;SDS011;65644;44.990;20.288;2023-05-23T10:57:38;4.90;;;3.15;;
76714;SDS011;65644;44.990;20.288;2023-05-23T11:00:10;3.60;;;2.95;;
76714;SDS011;65644;44.990;20.288;2023-05-23T11:02:36;3.90;;;3.20;;
76714;SDS011;65644;44.990;20.288;2023-05-23T11:05:17;5.25;;;3.05;;
76714;SDS011;65644;44.990;20.288;2023-05-23T11:07:44;4.25;;;2.80;;
76714;SDS011;65644;44.990;20.288;2023-05-23T11:10:10;3.90;;;3.25;;
76714;SDS011;65644;44.990;20.288;2023-05-23T11:12:41;4.47;;;2.97;;
76714;SDS011;65644;44.990;20.288;2023-05-23T11:17:49;5.03;;;3.35;;
76714;SDS011;65644;44.990;20.288;2023-05-23T11:20:15;5.32;;;3.05;;
76714;SDS011;65644;44.990;20.288;2023-05-23T11:22:53;2.70;;;2.45;;
76714;SDS011;65644;44.990;20.288;2023-05-23T11:25:19;6.18;;;3.10;;
76714;SDS011;65644;44.990;20.288;2023-05-23T11:27:47;4.80;;;3.15;;
76714;SDS011;65644;44.990;20.288;2023-05-23T11:30:15;4.95;;;3.33;;
76714;SDS011;65644;44.990;20.288;2023-05-23T11:32:42;2.88;;;2.60;;
76714;SDS011;65644;44.990;20.288;2023-05-23T11:35:14;6.15;;;3.10;;
76714;SDS011;65644;44.990;20.288;2023-05-23T11:37:41;3.97;;;2.95;;
76714;SDS011;65644;44.990;20.288;2023-05-23T11:40:24;4.28;;;2.55;;
76714;SDS011;65644;44.990;20.288;2023-05-23T11:42:50;3.05;;;2.63;;
76714;SDS011;65644;44.990;20.288;2023-05-23T11:45:20;4.85;;;2.83;;
76714;SDS011;65644;44.990;20.288;2023-05-23T11:47:46;5.32;;;3.20;;
76714;SDS011;65644;44.990;20.288;2023-05-23T11:50:13;3.30;;;2.88;;
76714;SDS011;65644;44.990;20.288;2023-05-23T11:52:40;8.25;;;3.38;;
76714;SDS011;65644;44.990;20.288;2023-05-23T11:55:06;6.53;;;3.25;;
76714;SDS011;65644;44.990;20.288;2023-05-23T11:57:33;3.28;;;2.60;;
76714;SDS011;65644;44.990;20.288;2023-05-23T12:00:02;3.35;;;2.50;;
76714;SDS011;65644;44.990;20.288;2023-05-23T12:02:28;5.75;;;3.42;;
76714;SDS011;65644;44.990;20.288;2023-05-23T12:04:54;6.47;;;3.25;;
76714;SDS011;65644;44.990;20.288;2023-05-23T12:07:20;7.03;;;3.40;;
76714;SDS011;65644;44.990;20.288;2023-05-23T12:09:46;7.25;;;3.72;;
76714;SDS011;65644;44.990;20.288;2023-05-23T12:12:13;5.55;;;3.92;;
76714;SDS011;65644;44.990;20.288;2023-05-23T12:14:41;3.58;;;3.28;;
76714;SDS011;65644;44.990;20.288;2023-05-23T12:17:10;4.53;;;3.20;;
76714;SDS011;65644;44.990;20.288;2023-05-23T12:19:37;3.35;;;3.13;;
76714;SDS011;65644;44.990;20.288;2023-05-23T12:22:06;4.68;;;3.10;;
76714;SDS011;65644;44.990;20.288;2023-05-23T12:24:32;6.47;;;3.00;;
76714;SDS011;65644;44.990;20.288;2023-05-23T12:26:59;4.95;;;3.40;;
76714;SDS011;65644;44.990;20.288;2023-05-23T12:29:32;5.85;;;3.45;;
76714;SDS011;65644;44.990;20.288;2023-05-23T12:31:59;3.80;;;3.20;;
76714;SDS011;65644;44.990;20.288;2023-05-23T12:34:26;4.45;;;3.67;;
76714;SDS011;65644;44.990;20.288;2023-05-23T12:36:59;4.20;;;3.40;;
76714;SDS011;65644;44.990;20.288;2023-05-23T12:39:27;7.82;;;4.45;;
76714;SDS011;65644;44.990;20.288;2023-05-23T12:41:54;13.35;;;4.97;;
76714;SDS011;65644;44.990;20.288;2023-05-23T12:44:22;33.05;;;7.35;;
76714;SDS011;65644;44.990;20.288;2023-05-23T12:46:48;5.30;;;3.40;;
76714;SDS011;65644;44.990;20.288;2023-05-23T12:49:14;5.40;;;3.17;;
76714;SDS011;65644;44.990;20.288;2023-05-23T12:51:40;4.68;;;3.33;;
76714;SDS011;65644;44.990;20.288;2023-05-23T12:54:09;3.40;;;2.95;;
76714;SDS011;65644;44.990;20.288;2023-05-23T12:56:35;5.57;;;3.15;;
76714;SDS011;65644;44.990;20.288;2023-05-23T12:59:01;6.10;;;3.28;;
76714;SDS011;65644;44.990;20.288;2023-05-23T13:01:28;6.20;;;2.95;;
76714;SDS011;65644;44.990;20.288;2023-05-23T13:03:54;4.03;;;2.72;;
76714;SDS011;65644;44.990;20.288;2023-05-23T13:06:21;4.30;;;3.20;;
76714;SDS011;65644;44.990;20.288;2023-05-23T13:08:47;4.78;;;2.97;;
76714;SDS011;65644;44.990;20.288;2023-05-23T13:11:15;4.45;;;3.00;;
76714;SDS011;65644;44.990;20.288;2023-05-23T13:13:41;4.35;;;2.90;;
76714;SDS011;65644;44.990;20.288;2023-05-23T13:16:07;4.97;;;2.80;;
76714;SDS011;65644;44.990;20.288;2023-05-23T13:18:33;3.03;;;2.72;;
76714;SDS011;65644;44.990;20.288;2023-05-23T13:20:59;3.83;;;2.80;;
76714;SDS011;65644;44.990;20.288;2023-05-23T13:23:25;3.65;;;2.72;;
76714;SDS011;65644;44.990;20.288;2023-05-23T13:25:51;2.83;;;2.60;;
76714;SDS011;65644;44.990;20.288;2023-05-23T13:28:17;5.30;;;3.25;;
76714;SDS011;65644;44.990;20.288;2023-05-23T13:30:44;3.58;;;2.75;;
76714;SDS011;65644;44.990;20.288;2023-05-23T13:33:10;3.80;;;2.95;;
76714;SDS011;65644;44.990;20.288;2023-05-23T13:35:36;3.63;;;2.70;;
76714;SDS011;65644;44.990;20.288;2023-05-23T13:38:02;4.65;;;2.85;;
76714;SDS011;65644;44.990;20.288;2023-05-23T13:40:28;8.93;;;3.35;;
76714;SDS011;65644;44.990;20.288;2023-05-23T13:42:54;10.30;;;4.28;;
76714;SDS011;65644;44.990;20.288;2023-05-23T13:45:20;5.75;;;3.03;;
76714;SDS011;65644;44.990;20.288;2023-05-23T13:47:47;3.90;;;2.47;;
76714;SDS011;65644;44.990;20.288;2023-05-23T13:50:13;6.30;;;2.83;;
76714;SDS011;65644;44.990;20.288;2023-05-23T13:52:40;5.22;;;2.75;;
76714;SDS011;65644;44.990;20.288;2023-05-23T13:55:06;2.90;;;2.60;;
76714;SDS011;65644;44.990;20.288;2023-05-23T13:57:32;3.20;;;2.90;;
76714;SDS011;65644;44.990;20.288;2023-05-23T13:59:58;3.45;;;3.00;;
76714;SDS011;65644;44.990;20.288;2023-05-23T14:02:25;5.57;;;3.40;;
76714;SDS011;65644;44.990;20.288;2023-05-23T14:04:51;3.75;;;3.15;;
76714;SDS011;65644;44.990;20.288;2023-05-23T14:07:17;4.68;;;2.70;;
76714;SDS011;65644;44.990;20.288;2023-05-23T14:09:43;4.20;;;2.67;;
76714;SDS011;65644;44.990;20.288;2023-05-23T14:12:09;4.03;;;2.70;;
76714;SDS011;65644;44.990;20.288;2023-05-23T14:14:35;3.35;;;2.65;;
76714;SDS011;65644;44.990;20.288;2023-05-23T14:17:01;7.53;;;3.33;;
76714;SDS011;65644;44.990;20.288;2023-05-23T14:19:27;6.38;;;2.72;;
76714;SDS011;65644;44.990;20.288;2023-05-23T14:21:54;6.03;;;3.28;;
76714;SDS011;65644;44.990;20.288;2023-05-23T14:24:20;5.68;;;3.10;;
76714;SDS011;65644;44.990;20.288;2023-05-23T14:26:46;3.70;;;3.03;;
76714;SDS011;65644;44.990;20.288;2023-05-23T14:29:13;5.35;;;3.08;;
76714;SDS011;65644;44.990;20.288;2023-05-23T14:31:40;5.55;;;2.90;;
76714;SDS011;65644;44.990;20.288;2023-05-23T14:34:06;5.75;;;2.80;;
76714;SDS011;65644;44.990;20.288;2023-05-23T14:36:32;6.80;;;3.45;;
76714;SDS011;65644;44.990;20.288;2023-05-23T14:38:58;4.97;;;3.03;;
76714;SDS011;65644;44.990;20.288;2023-05-23T14:41:25;8.23;;;3.47;;